sensor_id;sensor_type;location;lat;lon;timestamp;P1;durP1;ratioP1;P2;durP2;ratioP2
23732;SDS011;12047;53.450;-2.286;2023-08-01T00:03:59;8.48;;;1.88;;
23732;SDS011;12047;53.450;-2.286;2023-08-01T00:09:00;8.25;;;1.85;;
23732;SDS011;12047;53.450;-2.286;2023-08-01T00:14:00;13.83;;;2.10;;
23732;SDS011;12047;53.450;-2.286;2023-08-01T00:19:01;11.07;;;2.10;;
23732;SDS011;12047;53.450;-2.286;2023-08-01T00:24:02;11.13;;;2.33;;
23732;SDS011;12047;53.450;-2.286;2023-08-01T00:29:02;7.15;;;2.00;;
23732;SDS011;12047;53.450;-2.286;2023-08-01T00:34:03;9.13;;;2.53;;
23732;SDS011;12047;53.450;-2.286;2023-08-01T00:39:03;7.72;;;1.85;;
23732;SDS011;12047;53.450;-2.286;2023-08-01T00:44:04;7.88;;;1.63;;
23732;SDS011;12047;53.450;-2.286;2023-08-01T00:49:04;14.55;;;2.70;;
23732;SDS011;12047;53.450;-2.286;2023-08-01T00:54:05;12.73;;;2.47;;
23732;SDS011;12047;53.450;-2.286;2023-08-01T00:59:05;9.90;;;2.22;;
23732;SDS011;12047;53.450;-2.286;2023-08-01T01:04:06;10.73;;;2.50;;
23732;SDS011;12047;53.450;-2.286;2023-08-01T01:09:17;12.35;;;2.65;;
23732;SDS011;12047;53.450;-2.286;2023-08-01T01:14:18;12.65;;;2.40;;
23732;SDS011;12047;53.450;-2.286;2023-08-01T01:19:18;10.00;;;2.60;;
23732;SDS011;12047;53.450;-2.286;2023-08-01T01:24:19;13.48;;;2.65;;
23732;SDS011;12047;53.450;-2.286;2023-08-01T01:29:21;10.93;;;2.22;;
23732;SDS011;12047;53.450;-2.286;2023-08-01T01:34:23;11.82;;;2.42;;
23732;SDS011;12047;53.450;-2.286;2023-08-01T01:39:24;11.80;;;2.03;;
23732;SDS011;12047;53.450;-2.286;2023-08-01T01:44:24;13.90;;;2.10;;
23732;SDS011;12047;53.450;-2.286;2023-08-01T01:49:25;14.13;;;2.55;;
23732;SDS011;12047;53.450;-2.286;2023-08-01T01:54:26;13.25;;;2.78;;
23732;SDS011;12047;53.450;-2.286;2023-08-01T01:59:26;12.50;;;2.40;;
23732;SDS011;12047;53.450;-2.286;2023-08-01T02:04:27;16.80;;;2.22;;
23732;SDS011;12047;53.450;-2.286;2023-08-01T02:09:27;14.32;;;2.28;;
23732;SDS011;12047;53.450;-2.286;2023-08-01T02:14:27;14.10;;;3.25;;
23732;SDS011;12047;53.450;-2.286;2023-08-01T02:19:28;14.02;;;3.10;;
23732;SDS011;12047;53.450;-2.286;2023-08-01T02:24:28;15.73;;;2.60;;
23732;SDS011;12047;53.450;-2.286;2023-08-01T02:29:29;12.00;;;2.88;;
23732;SDS011;12047;53.450;-2.286;2023-08-01T02:34:29;13.18;;;2.67;;
23732;SDS011;12047;53.450;-2.286;2023-08-01T02:39:29;13.50;;;2.97;;
23732;SDS011;12047;53.450;-2.286;2023-08-01T02:44:30;10.10;;;2.42;;
23732;SDS011;12047;53.450;-2.286;2023-08-01T02:49:30;15.45;;;2.72;;
23732;SDS011;12047;53.450;-2.286;2023-08-01T02:54:31;15.75;;;3.13;;
23732;SDS011;12047;53.450;-2.286;2023-08-01T02:59:31;16.50;;;3.28;;
23732;SDS011;12047;53.450;-2.286;2023-08-01T03:04:33;13.88;;;2.92;;
23732;SDS011;12047;53.450;-2.286;2023-08-01T03:09:33;19.17;;;2.67;;
23732;SDS011;12047;53.450;-2.286;2023-08-01T03:14:33;16.37;;;3.37;;
23732;SDS011;12047;53.450;-2.286;2023-08-01T03:19:34;23.30;;;4.07;;
23732;SDS011;12047;53.450;-2.286;2023-08-01T03:24:34;10.43;;;2.72;;
23732;SDS011;12047;53.450;-2.286;2023-08-01T03:29:35;14.75;;;3.20;;
23732;SDS011;12047;53.450;-2.286;2023-08-01T03:34:35;15.88;;;3.47;;
23732;SDS011;12047;53.450;-2.286;2023-08-01T03:39:36;14.52;;;3.47;;
23732;SDS011;12047;53.450;-2.286;2023-08-01T03:44:36;15.60;;;3.77;;
23732;SDS011;12047;53.450;-2.286;2023-08-01T03:49:36;16.52;;;3.50;;
23732;SDS011;12047;53.450;-2.286;2023-08-01T03:54:38;20.20;;;3.60;;
23732;SDS011;12047;53.450;-2.286;2023-08-01T03:59:39;21.53;;;4.73;;
23732;SDS011;12047;53.450;-2.286;2023-08-01T04:04:39;22.63;;;4.10;;
23732;SDS011;12047;53.450;-2.286;2023-08-01T04:09:40;14.48;;;3.58;;
23732;SDS011;12047;53.450;-2.286;2023-08-01T04:14:40;16.27;;;3.95;;
23732;SDS011;12047;53.450;-2.286;2023-08-01T04:19:40;16.48;;;4.15;;
23732;SDS011;12047;53.450;-2.286;2023-08-01T04:24:41;21.93;;;3.73;;
23732;SDS011;12047;53.450;-2.286;2023-08-01T04:29:41;16.77;;;4.85;;
23732;SDS011;12047;53.450;-2.286;2023-08-01T04:34:42;17.27;;;3.70;;
23732;SDS011;12047;53.450;-2.286;2023-08-01T04:39:42;20.00;;;3.97;;
23732;SDS011;12047;53.450;-2.286;2023-08-01T04:44:43;16.70;;;3.80;;
23732;SDS011;12047;53.450;-2.286;2023-08-01T04:49:43;17.20;;;4.18;;
23732;SDS011;12047;53.450;-2.286;2023-08-01T04:54:43;14.35;;;3.22;;
23732;SDS011;12047;53.450;-2.286;2023-08-01T04:59:44;17.27;;;4.05;;
23732;SDS011;12047;53.450;-2.286;2023-08-01T05:04:44;15.88;;;3.55;;
23732;SDS011;12047;53.450;-2.286;2023-08-01T05:09:45;16.05;;;3.70;;
23732;SDS011;12047;53.450;-2.286;2023-08-01T05:14:45;17.08;;;3.55;;
23732;SDS011;12047;53.450;-2.286;2023-08-01T05:19:46;17.83;;;3.85;;
23732;SDS011;12047;53.450;-2.286;2023-08-01T05:24:46;16.33;;;3.45;;
23732;SDS011;12047;53.450;-2.286;2023-08-01T05:29:47;17.90;;;4.47;;
23732;SDS011;12047;53.450;-2.286;2023-08-01T05:34:47;13.13;;;3.67;;
23732;SDS011;12047;53.450;-2.286;2023-08-01T05:39:48;17.08;;;4.03;;
23732;SDS011;12047;53.450;-2.286;2023-08-01T05:44:48;16.20;;;3.75;;
23732;SDS011;12047;53.450;-2.286;2023-08-01T05:49:48;15.57;;;3.95;;
23732;SDS011;12047;53.450;-2.286;2023-08-01T05:54:49;15.98;;;3.65;;
23732;SDS011;12047;53.450;-2.286;2023-08-01T05:59:49;21.05;;;4.05;;
23732;SDS011;12047;53.450;-2.286;2023-08-01T06:04:50;18.60;;;3.58;;
23732;SDS011;12047;53.450;-2.286;2023-08-01T06:09:50;21.92;;;4.03;;
23732;SDS011;12047;53.450;-2.286;2023-08-01T06:14:53;15.57;;;3.55;;
23732;SDS011;12047;53.450;-2.286;2023-08-01T06:19:54;14.45;;;3.60;;
23732;SDS011;12047;53.450;-2.286;2023-08-01T06:24:54;21.30;;;4.47;;
23732;SDS011;12047;53.450;-2.286;2023-08-01T06:29:55;21.38;;;3.90;;
23732;SDS011;12047;53.450;-2.286;2023-08-01T06:34:56;16.05;;;3.78;;
23732;SDS011;12047;53.450;-2.286;2023-08-01T06:39:57;16.70;;;3.43;;
23732;SDS011;12047;53.450;-2.286;2023-08-01T06:44:59;18.27;;;3.60;;
23732;SDS011;12047;53.450;-2.286;2023-08-01T06:49:59;20.00;;;3.43;;
23732;SDS011;12047;53.450;-2.286;2023-08-01T06:55:00;11.73;;;2.60;;
23732;SDS011;12047;53.450;-2.286;2023-08-01T07:00:00;17.15;;;3.47;;
23732;SDS011;12047;53.450;-2.286;2023-08-01T07:05:01;17.67;;;3.15;;
23732;SDS011;12047;53.450;-2.286;2023-08-01T07:10:01;14.55;;;3.10;;
23732;SDS011;12047;53.450;-2.286;2023-08-01T07:15:02;18.08;;;3.03;;
23732;SDS011;12047;53.450;-2.286;2023-08-01T07:20:02;12.63;;;2.80;;
23732;SDS011;12047;53.450;-2.286;2023-08-01T07:25:03;11.15;;;2.85;;
23732;SDS011;12047;53.450;-2.286;2023-08-01T07:30:04;13.50;;;3.05;;
23732;SDS011;12047;53.450;-2.286;2023-08-01T07:35:05;11.98;;;2.75;;
23732;SDS011;12047;53.450;-2.286;2023-08-01T07:40:06;12.18;;;4.90;;
23732;SDS011;12047;53.450;-2.286;2023-08-01T07:45:07;15.32;;;3.17;;
23732;SDS011;12047;53.450;-2.286;2023-08-01T07:50:08;13.35;;;2.70;;
23732;SDS011;12047;53.450;-2.286;2023-08-01T07:55:09;11.25;;;3.35;;
23732;SDS011;12047;53.450;-2.286;2023-08-01T08:00:10;15.05;;;3.00;;
23732;SDS011;12047;53.450;-2.286;2023-08-01T08:05:11;14.80;;;2.78;;
23732;SDS011;12047;53.450;-2.286;2023-08-01T08:10:11;13.93;;;2.90;;
23732;SDS011;12047;53.450;-2.286;2023-08-01T08:15:12;15.63;;;2.88;;
23732;SDS011;12047;53.450;-2.286;2023-08-01T08:20:13;12.60;;;3.45;;
23732;SDS011;12047;53.450;-2.286;2023-08-01T08:25:14;15.25;;;3.20;;
23732;SDS011;12047;53.450;-2.286;2023-08-01T08:30:14;18.58;;;3.60;;
23732;SDS011;12047;53.450;-2.286;2023-08-01T08:35:15;11.68;;;2.70;;
23732;SDS011;12047;53.450;-2.286;2023-08-01T08:40:15;18.42;;;3.78;;
23732;SDS011;12047;53.450;-2.286;2023-08-01T08:45:17;10.25;;;2.35;;
23732;SDS011;12047;53.450;-2.286;2023-08-01T08:50:19;13.98;;;2.22;;
23732;SDS011;12047;53.450;-2.286;2023-08-01T08:55:20;10.95;;;2.67;;
23732;SDS011;12047;53.450;-2.286;2023-08-01T09:00:22;13.68;;;2.80;;
23732;SDS011;12047;53.450;-2.286;2023-08-01T09:05:26;12.88;;;2.67;;
23732;SDS011;12047;53.450;-2.286;2023-08-01T09:10:28;6.95;;;2.25;;
23732;SDS011;12047;53.450;-2.286;2023-08-01T09:15:28;9.10;;;2.60;;
23732;SDS011;12047;53.450;-2.286;2023-08-01T09:20:29;15.05;;;2.95;;
23732;SDS011;12047;53.450;-2.286;2023-08-01T09:25:39;5.55;;;2.22;;
23732;SDS011;12047;53.450;-2.286;2023-08-01T09:36:07;14.20;;;2.40;;
23732;SDS011;12047;53.450;-2.286;2023-08-01T09:41:16;7.45;;;2.20;;
23732;SDS011;12047;53.450;-2.286;2023-08-01T09:46:19;5.88;;;1.70;;
23732;SDS011;12047;53.450;-2.286;2023-08-01T09:51:20;8.93;;;2.20;;
23732;SDS011;12047;53.450;-2.286;2023-08-01T09:56:22;12.68;;;2.25;;
23732;SDS011;12047;53.450;-2.286;2023-08-01T10:01:26;12.88;;;2.13;;
23732;SDS011;12047;53.450;-2.286;2023-08-01T10:06:28;6.10;;;1.90;;
23732;SDS011;12047;53.450;-2.286;2023-08-01T10:11:34;10.70;;;2.25;;
23732;SDS011;12047;53.450;-2.286;2023-08-01T10:16:35;9.02;;;2.13;;
23732;SDS011;12047;53.450;-2.286;2023-08-01T10:21:36;6.13;;;1.67;;
23732;SDS011;12047;53.450;-2.286;2023-08-01T10:26:37;7.22;;;1.85;;
23732;SDS011;12047;53.450;-2.286;2023-08-01T10:31:38;8.55;;;2.40;;
23732;SDS011;12047;53.450;-2.286;2023-08-01T10:36:38;9.77;;;2.17;;
23732;SDS011;12047;53.450;-2.286;2023-08-01T10:41:39;9.27;;;2.47;;
23732;SDS011;12047;53.450;-2.286;2023-08-01T10:51:47;9.95;;;2.70;;
23732;SDS011;12047;53.450;-2.286;2023-08-01T10:56:48;9.48;;;2.45;;
23732;SDS011;12047;53.450;-2.286;2023-08-01T11:01:51;9.60;;;2.72;;
23732;SDS011;12047;53.450;-2.286;2023-08-01T11:06:54;10.73;;;3.15;;
23732;SDS011;12047;53.450;-2.286;2023-08-01T11:11:58;9.60;;;2.70;;
23732;SDS011;12047;53.450;-2.286;2023-08-01T11:17:00;8.43;;;2.40;;
23732;SDS011;12047;53.450;-2.286;2023-08-01T11:22:08;10.45;;;2.53;;
23732;SDS011;12047;53.450;-2.286;2023-08-01T11:27:10;7.07;;;2.08;;
23732;SDS011;12047;53.450;-2.286;2023-08-01T11:32:11;5.80;;;1.92;;
23732;SDS011;12047;53.450;-2.286;2023-08-01T11:37:13;11.23;;;3.65;;
23732;SDS011;12047;53.450;-2.286;2023-08-01T11:42:16;5.78;;;1.88;;
23732;SDS011;12047;53.450;-2.286;2023-08-01T11:47:17;9.88;;;1.83;;
23732;SDS011;12047;53.450;-2.286;2023-08-01T11:52:25;5.93;;;1.73;;
23732;SDS011;12047;53.450;-2.286;2023-08-01T11:57:29;6.43;;;1.92;;
23732;SDS011;12047;53.450;-2.286;2023-08-01T12:02:30;6.18;;;1.60;;
23732;SDS011;12047;53.450;-2.286;2023-08-01T12:07:30;6.45;;;1.90;;
23732;SDS011;12047;53.450;-2.286;2023-08-01T12:12:31;7.43;;;1.77;;
23732;SDS011;12047;53.450;-2.286;2023-08-01T12:17:31;5.43;;;1.50;;
23732;SDS011;12047;53.450;-2.286;2023-08-01T12:22:32;5.22;;;1.73;;
23732;SDS011;12047;53.450;-2.286;2023-08-01T12:27:32;8.82;;;1.90;;
23732;SDS011;12047;53.450;-2.286;2023-08-01T12:32:33;10.55;;;2.15;;
23732;SDS011;12047;53.450;-2.286;2023-08-01T12:37:35;8.57;;;1.83;;
23732;SDS011;12047;53.450;-2.286;2023-08-01T12:42:35;11.17;;;2.20;;
23732;SDS011;12047;53.450;-2.286;2023-08-01T12:47:36;5.07;;;1.58;;
23732;SDS011;12047;53.450;-2.286;2023-08-01T12:52:36;5.85;;;1.60;;
23732;SDS011;12047;53.450;-2.286;2023-08-01T12:57:36;6.87;;;1.70;;
23732;SDS011;12047;53.450;-2.286;2023-08-01T13:02:37;5.90;;;1.33;;
23732;SDS011;12047;53.450;-2.286;2023-08-01T13:07:38;6.70;;;1.35;;
23732;SDS011;12047;53.450;-2.286;2023-08-01T13:12:38;4.63;;;1.30;;
23732;SDS011;12047;53.450;-2.286;2023-08-01T13:17:38;5.05;;;1.50;;
23732;SDS011;12047;53.450;-2.286;2023-08-01T13:22:39;7.18;;;1.40;;
23732;SDS011;12047;53.450;-2.286;2023-08-01T13:27:39;7.10;;;1.35;;
23732;SDS011;12047;53.450;-2.286;2023-08-01T13:32:40;5.30;;;1.23;;
23732;SDS011;12047;53.450;-2.286;2023-08-01T13:37:41;6.20;;;1.33;;
23732;SDS011;12047;53.450;-2.286;2023-08-01T13:42:42;5.00;;;1.58;;
23732;SDS011;12047;53.450;-2.286;2023-08-01T13:47:42;5.35;;;1.50;;
23732;SDS011;12047;53.450;-2.286;2023-08-01T13:52:43;5.50;;;0.98;;
23732;SDS011;12047;53.450;-2.286;2023-08-01T13:57:43;4.55;;;1.02;;
23732;SDS011;12047;53.450;-2.286;2023-08-01T14:02:43;7.63;;;1.30;;
23732;SDS011;12047;53.450;-2.286;2023-08-01T14:07:44;4.93;;;1.47;;
23732;SDS011;12047;53.450;-2.286;2023-08-01T14:12:44;3.25;;;0.90;;
23732;SDS011;12047;53.450;-2.286;2023-08-01T14:17:45;5.22;;;1.42;;
23732;SDS011;12047;53.450;-2.286;2023-08-01T14:22:45;6.53;;;1.20;;
23732;SDS011;12047;53.450;-2.286;2023-08-01T14:27:46;2.65;;;1.30;;
23732;SDS011;12047;53.450;-2.286;2023-08-01T14:32:47;6.93;;;1.10;;
23732;SDS011;12047;53.450;-2.286;2023-08-01T14:37:47;5.57;;;1.35;;
23732;SDS011;12047;53.450;-2.286;2023-08-01T14:42:48;3.90;;;1.00;;
23732;SDS011;12047;53.450;-2.286;2023-08-01T14:47:49;3.75;;;1.15;;
23732;SDS011;12047;53.450;-2.286;2023-08-01T14:52:49;5.20;;;1.30;;
23732;SDS011;12047;53.450;-2.286;2023-08-01T14:57:50;2.83;;;1.23;;
23732;SDS011;12047;53.450;-2.286;2023-08-01T15:02:50;1.50;;;0.90;;
23732;SDS011;12047;53.450;-2.286;2023-08-01T15:07:51;4.30;;;1.48;;
23732;SDS011;12047;53.450;-2.286;2023-08-01T15:12:52;4.30;;;1.00;;
23732;SDS011;12047;53.450;-2.286;2023-08-01T15:17:53;2.78;;;1.05;;
23732;SDS011;12047;53.450;-2.286;2023-08-01T15:22:53;5.57;;;1.45;;
23732;SDS011;12047;53.450;-2.286;2023-08-01T15:27:54;4.93;;;1.17;;
23732;SDS011;12047;53.450;-2.286;2023-08-01T15:32:54;4.35;;;1.42;;
23732;SDS011;12047;53.450;-2.286;2023-08-01T15:37:55;3.47;;;0.97;;
23732;SDS011;12047;53.450;-2.286;2023-08-01T15:42:55;2.70;;;1.00;;
23732;SDS011;12047;53.450;-2.286;2023-08-01T15:47:56;3.83;;;1.57;;
23732;SDS011;12047;53.450;-2.286;2023-08-01T15:52:56;2.05;;;0.95;;
23732;SDS011;12047;53.450;-2.286;2023-08-01T15:57:56;4.70;;;1.33;;
23732;SDS011;12047;53.450;-2.286;2023-08-01T16:02:57;4.93;;;1.30;;
23732;SDS011;12047;53.450;-2.286;2023-08-01T16:07:57;3.08;;;1.10;;
23732;SDS011;12047;53.450;-2.286;2023-08-01T16:12:58;4.80;;;1.10;;
23732;SDS011;12047;53.450;-2.286;2023-08-01T16:17:59;5.33;;;1.47;;
23732;SDS011;12047;53.450;-2.286;2023-08-01T16:22:59;4.55;;;1.33;;
23732;SDS011;12047;53.450;-2.286;2023-08-01T16:28:00;4.57;;;1.30;;
23732;SDS011;12047;53.450;-2.286;2023-08-01T16:33:00;3.08;;;1.48;;
23732;SDS011;12047;53.450;-2.286;2023-08-01T16:38:01;5.43;;;1.33;;
23732;SDS011;12047;53.450;-2.286;2023-08-01T16:43:01;3.85;;;1.30;;
23732;SDS011;12047;53.450;-2.286;2023-08-01T16:48:02;4.00;;;1.67;;
23732;SDS011;12047;53.450;-2.286;2023-08-01T16:53:02;4.03;;;1.23;;
23732;SDS011;12047;53.450;-2.286;2023-08-01T16:58:03;3.88;;;1.50;;
23732;SDS011;12047;53.450;-2.286;2023-08-01T17:03:04;4.82;;;1.35;;
23732;SDS011;12047;53.450;-2.286;2023-08-01T17:08:05;4.72;;;1.70;;
23732;SDS011;12047;53.450;-2.286;2023-08-01T17:13:05;5.85;;;1.60;;
23732;SDS011;12047;53.450;-2.286;2023-08-01T17:18:06;5.80;;;1.45;;
23732;SDS011;12047;53.450;-2.286;2023-08-01T17:23:06;5.53;;;1.53;;
23732;SDS011;12047;53.450;-2.286;2023-08-01T17:28:07;3.33;;;1.40;;
23732;SDS011;12047;53.450;-2.286;2023-08-01T17:33:07;4.47;;;1.63;;
23732;SDS011;12047;53.450;-2.286;2023-08-01T17:38:08;6.80;;;2.10;;
23732;SDS011;12047;53.450;-2.286;2023-08-01T17:43:08;7.28;;;1.90;;
23732;SDS011;12047;53.450;-2.286;2023-08-01T17:48:08;3.72;;;1.65;;
23732;SDS011;12047;53.450;-2.286;2023-08-01T17:53:10;12.40;;;8.48;;
23732;SDS011;12047;53.450;-2.286;2023-08-01T17:58:10;7.28;;;1.58;;
23732;SDS011;12047;53.450;-2.286;2023-08-01T18:03:11;3.92;;;1.70;;
23732;SDS011;12047;53.450;-2.286;2023-08-01T18:08:11;4.23;;;1.43;;
23732;SDS011;12047;53.450;-2.286;2023-08-01T18:13:12;5.82;;;1.52;;
23732;SDS011;12047;53.450;-2.286;2023-08-01T18:18:12;2.92;;;1.10;;
23732;SDS011;12047;53.450;-2.286;2023-08-01T18:23:13;6.15;;;1.40;;
23732;SDS011;12047;53.450;-2.286;2023-08-01T18:28:13;5.18;;;1.40;;
23732;SDS011;12047;53.450;-2.286;2023-08-01T18:33:14;5.45;;;1.40;;
23732;SDS011;12047;53.450;-2.286;2023-08-01T18:38:14;6.00;;;1.38;;
23732;SDS011;12047;53.450;-2.286;2023-08-01T18:43:15;5.18;;;1.20;;
23732;SDS011;12047;53.450;-2.286;2023-08-01T18:48:17;3.58;;;1.50;;
23732;SDS011;12047;53.450;-2.286;2023-08-01T18:53:17;3.50;;;1.37;;
23732;SDS011;12047;53.450;-2.286;2023-08-01T18:58:17;4.40;;;1.50;;
23732;SDS011;12047;53.450;-2.286;2023-08-01T19:03:18;4.45;;;1.90;;
23732;SDS011;12047;53.450;-2.286;2023-08-01T19:08:18;5.70;;;2.10;;
23732;SDS011;12047;53.450;-2.286;2023-08-01T19:13:19;5.28;;;2.05;;
23732;SDS011;12047;53.450;-2.286;2023-08-01T19:18:19;5.20;;;2.08;;
23732;SDS011;12047;53.450;-2.286;2023-08-01T19:23:20;5.28;;;1.92;;
23732;SDS011;12047;53.450;-2.286;2023-08-01T19:28:20;5.28;;;1.80;;
23732;SDS011;12047;53.450;-2.286;2023-08-01T19:33:21;6.15;;;1.90;;
23732;SDS011;12047;53.450;-2.286;2023-08-01T19:38:21;5.43;;;2.05;;
23732;SDS011;12047;53.450;-2.286;2023-08-01T19:43:22;5.88;;;2.00;;
23732;SDS011;12047;53.450;-2.286;2023-08-01T19:48:22;5.85;;;3.00;;
23732;SDS011;12047;53.450;-2.286;2023-08-01T19:53:23;4.27;;;2.30;;
23732;SDS011;12047;53.450;-2.286;2023-08-01T19:58:24;4.10;;;1.70;;
23732;SDS011;12047;53.450;-2.286;2023-08-01T20:03:25;5.45;;;1.80;;
23732;SDS011;12047;53.450;-2.286;2023-08-01T20:08:28;4.20;;;1.88;;
23732;SDS011;12047;53.450;-2.286;2023-08-01T20:13:29;3.83;;;2.13;;
23732;SDS011;12047;53.450;-2.286;2023-08-01T20:18:29;5.00;;;2.60;;
23732;SDS011;12047;53.450;-2.286;2023-08-01T20:23:30;4.53;;;2.10;;
23732;SDS011;12047;53.450;-2.286;2023-08-01T20:28:31;5.22;;;1.92;;
23732;SDS011;12047;53.450;-2.286;2023-08-01T20:33:34;6.40;;;2.28;;
23732;SDS011;12047;53.450;-2.286;2023-08-01T20:38:35;6.95;;;2.38;;
23732;SDS011;12047;53.450;-2.286;2023-08-01T20:43:35;9.60;;;3.25;;
23732;SDS011;12047;53.450;-2.286;2023-08-01T20:48:36;7.30;;;3.00;;
23732;SDS011;12047;53.450;-2.286;2023-08-01T20:53:36;5.72;;;3.03;;
23732;SDS011;12047;53.450;-2.286;2023-08-01T20:58:37;6.68;;;3.22;;
23732;SDS011;12047;53.450;-2.286;2023-08-01T21:03:38;7.97;;;3.17;;
23732;SDS011;12047;53.450;-2.286;2023-08-01T21:08:38;7.75;;;3.58;;
23732;SDS011;12047;53.450;-2.286;2023-08-01T21:13:40;12.60;;;5.07;;
23732;SDS011;12047;53.450;-2.286;2023-08-01T21:18:45;6.65;;;3.47;;
23732;SDS011;12047;53.450;-2.286;2023-08-01T21:23:46;11.95;;;5.00;;
23732;SDS011;12047;53.450;-2.286;2023-08-01T21:28:47;8.23;;;3.42;;
23732;SDS011;12047;53.450;-2.286;2023-08-01T21:33:48;9.43;;;3.40;;
23732;SDS011;12047;53.450;-2.286;2023-08-01T21:38:48;7.43;;;3.38;;
23732;SDS011;12047;53.450;-2.286;2023-08-01T21:43:48;7.80;;;3.73;;
23732;SDS011;12047;53.450;-2.286;2023-08-01T21:48:49;7.35;;;3.50;;
23732;SDS011;12047;53.450;-2.286;2023-08-01T21:53:49;6.15;;;2.85;;
23732;SDS011;12047;53.450;-2.286;2023-08-01T21:58:50;6.18;;;3.15;;
23732;SDS011;12047;53.450;-2.286;2023-08-01T22:03:50;8.45;;;3.10;;
23732;SDS011;12047;53.450;-2.286;2023-08-01T22:08:51;7.10;;;2.60;;
23732;SDS011;12047;53.450;-2.286;2023-08-01T22:13:51;6.67;;;2.83;;
23732;SDS011;12047;53.450;-2.286;2023-08-01T22:18:52;6.65;;;2.88;;
23732;SDS011;12047;53.450;-2.286;2023-08-01T22:23:52;6.43;;;3.05;;
23732;SDS011;12047;53.450;-2.286;2023-08-01T22:28:52;6.50;;;2.63;;
23732;SDS011;12047;53.450;-2.286;2023-08-01T22:33:53;5.00;;;2.70;;
23732;SDS011;12047;53.450;-2.286;2023-08-01T22:38:54;6.45;;;2.60;;
23732;SDS011;12047;53.450;-2.286;2023-08-01T22:43:57;6.75;;;2.35;;
23732;SDS011;12047;53.450;-2.286;2023-08-01T22:48:59;5.28;;;2.45;;
23732;SDS011;12047;53.450;-2.286;2023-08-01T22:53:59;4.45;;;2.45;;
23732;SDS011;12047;53.450;-2.286;2023-08-01T22:58:59;4.18;;;2.10;;
23732;SDS011;12047;53.450;-2.286;2023-08-01T23:04:00;4.88;;;2.20;;
23732;SDS011;12047;53.450;-2.286;2023-08-01T23:20:35;7.38;;;2.40;;
23732;SDS011;12047;53.450;-2.286;2023-08-01T23:25:35;6.65;;;2.15;;
23732;SDS011;12047;53.450;-2.286;2023-08-01T23:30:36;4.53;;;1.93;;
23732;SDS011;12047;53.450;-2.286;2023-08-01T23:35:36;4.25;;;1.70;;
23732;SDS011;12047;53.450;-2.286;2023-08-01T23:40:37;2.57;;;1.43;;
23732;SDS011;12047;53.450;-2.286;2023-08-01T23:45:44;2.80;;;1.58;;
23732;SDS011;12047;53.450;-2.286;2023-08-01T23:50:52;4.75;;;1.90;;
23732;SDS011;12047;53.450;-2.286;2023-08-01T23:55:56;5.63;;;2.03;;
